Weather at Randers Airport

Public forecast

Using degrees Celsius for public forecast. Weather courtesy of forecast.io.

Closest aviation weather report (METAR) to Randers Airport

Closest report is Aarhus Airport, 23.0 nm (42.6 km) ESE. Retrieved 2020/11/26 03:20 UTC (5 minutes ago):

EKAH 260320Z AUTO 21005KT 150V260 3100 -RA BR OVC004/// 08/08 Q1013

Closest aviation forecast (TAF) to Randers Airport

Closest forecast is Aarhus Airport, 23.0 nm (42.6 km) ESE. Retrieved 2020-11-26 00:30 UTC (3 hours ago):

TAF EKAH 252304Z 2600/2624 22010KT 9999 BKN015 TEMPO 2600/2603 4000 BR BKN008 BECMG 2603/2605 2500 BR RA BKN004 BECMG 2605/2607 30008KT 9999 NSW SCT020 TEMPO 2607/2609 4000 BR BKN010